createdAt,value
2022-12-11T00:01:14.939Z,110.57
2022-12-11T00:03:41.798Z,117.40
2022-12-11T00:06:09.682Z,108.83
2022-12-11T00:08:36.513Z,112.27
2022-12-11T00:11:03.432Z,109.90
2022-12-11T00:13:30.078Z,119.03
2022-12-11T00:15:58.402Z,116.10
2022-12-11T00:18:24.955Z,116.60
2022-12-11T00:20:51.532Z,111.07
2022-12-11T00:23:18.113Z,106.53
2022-12-11T00:25:45.174Z,105.27
2022-12-11T00:28:12.499Z,109.63
2022-12-11T00:30:40.252Z,116.40
2022-12-11T00:33:06.777Z,112.00
2022-12-11T00:35:33.244Z,116.70
2022-12-11T00:37:59.793Z,120.07
2022-12-11T00:40:26.372Z,103.30
2022-12-11T00:42:52.949Z,111.40
2022-12-11T00:45:19.478Z,112.60
2022-12-11T00:47:46.882Z,96.77
2022-12-11T00:50:13.405Z,103.20
2022-12-11T00:52:40.900Z,114.07
2022-12-11T00:57:52.020Z,110.23
2022-12-11T01:00:18.623Z,123.63
2022-12-11T01:02:45.320Z,127.13
2022-12-11T01:05:12.162Z,108.80
2022-12-11T01:10:26.753Z,118.53
2022-12-11T01:15:42.101Z,130.17
2022-12-11T01:18:09.290Z,120.97
2022-12-11T01:20:36.312Z,122.27
2022-12-11T01:23:02.809Z,147.13
2022-12-11T01:25:29.407Z,115.97
2022-12-11T01:27:55.929Z,125.57
2022-12-11T01:30:23.061Z,122.00
2022-12-11T01:32:49.645Z,115.60
2022-12-11T01:35:16.385Z,118.47
2022-12-11T01:37:43.663Z,114.77
2022-12-11T01:40:11.455Z,115.57
2022-12-11T01:42:38.748Z,108.73
2022-12-11T01:45:26.858Z,108.93
2022-12-11T01:47:58.418Z,110.70
2022-12-11T01:50:24.998Z,105.77
2022-12-11T01:52:52.489Z,119.33
2022-12-11T01:55:19.169Z,110.43
2022-12-11T01:57:45.778Z,110.93
2022-12-11T02:00:13.060Z,116.53
2022-12-11T02:02:39.960Z,108.23
2022-12-11T02:05:06.683Z,113.70
2022-12-11T02:07:37.118Z,108.77
2022-12-11T02:10:03.997Z,104.10
2022-12-11T02:15:46.968Z,102.43
2022-12-11T02:18:15.245Z,109.43
2022-12-11T02:20:42.716Z,99.03
2022-12-11T02:23:15.478Z,105.23
2022-12-11T02:26:00.434Z,95.17
2022-12-11T02:28:33.224Z,101.27
2022-12-11T02:31:01.951Z,105.60
2022-12-11T02:33:42.414Z,98.00
2022-12-11T02:36:09.010Z,89.80
2022-12-11T02:38:36.297Z,90.87
2022-12-11T02:41:03.059Z,91.23
2022-12-11T02:43:29.714Z,90.60
2022-12-11T02:45:56.256Z,86.03
2022-12-11T02:48:22.897Z,80.43
2022-12-11T02:50:50.316Z,76.97
2022-12-11T02:53:17.624Z,63.97
2022-12-11T02:55:44.323Z,59.53
2022-12-11T02:58:13.905Z,57.33
2022-12-11T03:00:40.467Z,72.57
2022-12-11T03:03:06.986Z,78.30
2022-12-11T03:05:33.590Z,72.47
2022-12-11T03:08:00.133Z,78.17
2022-12-11T03:10:26.753Z,74.50
2022-12-11T03:12:54.203Z,65.37
2022-12-11T03:15:21.648Z,69.80
2022-12-11T03:18:15.234Z,75.10
2022-12-11T03:20:51.277Z,71.30
2022-12-11T03:23:24.035Z,71.57
2022-12-11T03:25:53.448Z,92.70
2022-12-11T03:28:21.141Z,94.47
2022-12-11T03:30:48.208Z,91.40
2022-12-11T03:33:22.200Z,89.03
2022-12-11T03:35:49.593Z,82.97
2022-12-11T03:38:16.798Z,76.63
2022-12-11T03:40:43.378Z,73.70
2022-12-11T03:43:09.978Z,67.13
2022-12-11T03:45:36.557Z,71.47
2022-12-11T03:48:03.057Z,66.17
2022-12-11T03:50:30.438Z,68.03
2022-12-11T03:52:56.917Z,63.80
2022-12-11T03:55:23.448Z,61.70
2022-12-11T03:57:50.021Z,73.67
2022-12-11T04:00:17.756Z,75.17
2022-12-11T04:02:44.330Z,65.00
2022-12-11T04:05:11.511Z,73.20
2022-12-11T04:07:38.591Z,69.20
2022-12-11T04:10:05.786Z,62.93
2022-12-11T04:12:32.536Z,64.87
2022-12-11T04:15:02.059Z,66.50
2022-12-11T04:17:48.023Z,64.30
2022-12-11T04:20:33.138Z,63.93
2022-12-11T04:23:18.471Z,62.10
2022-12-11T04:25:45.081Z,57.93
2022-12-11T04:28:11.624Z,57.03
2022-12-11T04:30:38.211Z,51.00
2022-12-11T04:33:04.700Z,59.20
2022-12-11T04:35:31.399Z,54.43
2022-12-11T04:37:59.150Z,59.20
2022-12-11T04:40:25.981Z,54.97
2022-12-11T04:42:52.527Z,50.80
2022-12-11T04:48:03.154Z,56.80
2022-12-11T04:50:29.720Z,65.63
2022-12-11T04:52:56.486Z,60.83
2022-12-11T04:55:23.109Z,66.30
2022-12-11T04:57:49.828Z,58.63
2022-12-11T05:00:17.322Z,60.60
2022-12-11T05:02:43.968Z,58.33
2022-12-11T05:05:10.953Z,56.07
2022-12-11T05:07:38.583Z,54.03
2022-12-11T05:10:05.510Z,56.57
2022-12-11T05:12:32.484Z,54.17
2022-12-11T05:14:59.133Z,54.73
2022-12-11T05:17:25.909Z,56.10
2022-12-11T05:19:52.475Z,53.80
2022-12-11T05:22:19.007Z,52.83
2022-12-11T05:24:45.662Z,50.40
2022-12-11T05:27:12.282Z,54.00
2022-12-11T05:29:38.796Z,52.93
2022-12-11T05:32:05.376Z,48.40
2022-12-11T05:34:31.856Z,41.53
2022-12-11T05:36:59.120Z,39.87
2022-12-11T05:39:25.711Z,38.73
2022-12-11T05:41:52.973Z,34.37
2022-12-11T05:44:19.780Z,38.70
2022-12-11T05:46:46.870Z,41.73
2022-12-11T05:49:13.468Z,41.13
2022-12-11T05:51:41.516Z,38.13
2022-12-11T05:54:09.093Z,37.40
2022-12-11T05:56:36.038Z,33.17
2022-12-11T05:59:03.489Z,30.90
2022-12-11T06:01:31.227Z,33.80
2022-12-11T06:03:58.012Z,30.03
2022-12-11T06:06:24.959Z,30.93
2022-12-11T06:08:52.489Z,25.57
2022-12-11T06:11:23.767Z,26.67
2022-12-11T06:13:51.057Z,21.60
2022-12-11T06:16:17.653Z,15.17
2022-12-11T06:18:44.626Z,12.07
2022-12-11T06:21:12.514Z,11.67
2022-12-11T06:23:39.156Z,10.37
2022-12-11T06:26:05.716Z,9.60
2022-12-11T06:28:32.358Z,10.93
2022-12-11T06:30:59.377Z,13.33
2022-12-11T06:33:26.089Z,12.37
2022-12-11T06:35:52.662Z,8.70
2022-12-11T06:38:19.671Z,7.13
2022-12-11T06:40:46.864Z,7.77
2022-12-11T06:43:13.771Z,6.77
2022-12-11T06:45:40.327Z,5.70
2022-12-11T06:48:06.925Z,6.47
2022-12-11T06:50:33.585Z,6.37
2022-12-11T06:53:00.291Z,4.87
2022-12-11T06:55:27.155Z,6.57
2022-12-11T06:57:54.087Z,7.40
2022-12-11T07:00:21.065Z,8.43
2022-12-11T07:02:48.225Z,7.93
2022-12-11T07:05:15.133Z,7.23
2022-12-11T07:07:41.801Z,7.37
2022-12-11T07:10:08.892Z,9.37
2022-12-11T07:12:35.845Z,6.67
2022-12-11T07:15:02.552Z,9.50
2022-12-11T07:17:29.616Z,8.20
2022-12-11T07:19:56.410Z,8.43
2022-12-11T07:22:23.253Z,8.97
2022-12-11T07:24:49.840Z,7.27
2022-12-11T07:27:16.527Z,8.00
2022-12-11T07:29:43.227Z,7.60
2022-12-11T07:32:10.231Z,6.70
2022-12-11T07:34:37.259Z,7.50
2022-12-11T07:37:04.067Z,7.20
2022-12-11T07:39:31.721Z,6.07
2022-12-11T07:41:58.300Z,7.90
2022-12-11T07:44:25.040Z,7.63
2022-12-11T07:46:51.987Z,6.97
2022-12-11T07:49:18.587Z,7.30
2022-12-11T07:51:45.220Z,6.63
2022-12-11T07:54:15.043Z,6.10
2022-12-11T07:56:43.904Z,7.40
2022-12-11T07:59:11.182Z,8.63
2022-12-11T08:01:38.693Z,6.27
2022-12-11T08:04:06.060Z,7.27
2022-12-11T08:06:34.549Z,5.63
2022-12-11T08:09:01.838Z,7.67
2022-12-11T08:11:28.598Z,5.30
2022-12-11T08:13:55.205Z,5.83
2022-12-11T08:16:21.841Z,5.87
2022-12-11T08:18:48.560Z,4.87
2022-12-11T08:21:15.216Z,5.10
2022-12-11T08:23:41.861Z,4.60
2022-12-11T08:26:14.240Z,4.83
2022-12-11T08:28:41.133Z,4.17
2022-12-11T08:31:08.492Z,4.60
2022-12-11T08:33:35.622Z,5.07
2022-12-11T08:36:02.775Z,9.07
2022-12-11T08:38:29.507Z,5.80
2022-12-11T08:40:56.128Z,5.03
2022-12-11T08:43:22.764Z,4.50
2022-12-11T08:45:49.465Z,4.67
2022-12-11T08:48:16.227Z,4.93
2022-12-11T08:50:42.898Z,7.93
2022-12-11T08:53:09.506Z,7.70
2022-12-11T08:55:36.759Z,6.83
2022-12-11T08:58:03.895Z,7.37
2022-12-11T09:00:30.506Z,5.77
2022-12-11T09:02:57.291Z,3.63
2022-12-11T09:05:24.023Z,7.10
2022-12-11T09:07:50.992Z,5.93
2022-12-11T09:10:18.040Z,8.53
2022-12-11T09:12:44.659Z,9.50
2022-12-11T09:15:11.705Z,25.00
2022-12-11T09:20:23.111Z,12.13
2022-12-11T09:22:49.860Z,9.10
2022-12-11T09:25:16.633Z,9.70
2022-12-11T09:27:43.773Z,34.33
2022-12-11T09:30:10.534Z,30.93
2022-12-11T09:32:37.289Z,14.80
2022-12-11T09:35:04.037Z,14.50
2022-12-11T09:37:30.692Z,13.67
2022-12-11T09:40:00.209Z,13.57
2022-12-11T09:42:32.133Z,14.47
2022-12-11T09:44:59.910Z,11.80
2022-12-11T09:47:30.381Z,12.93
2022-12-11T09:49:59.063Z,12.70
2022-12-11T09:52:35.696Z,15.73
2022-12-11T09:55:04.045Z,8.90
2022-12-11T09:57:31.023Z,10.03
2022-12-11T10:00:05.781Z,8.67
2022-12-11T10:02:46.281Z,18.77
2022-12-11T10:05:13.214Z,13.83
2022-12-11T10:07:46.440Z,14.60
2022-12-11T10:10:13.431Z,12.13
2022-12-11T10:12:43.062Z,9.60
2022-12-11T10:15:28.800Z,10.10
2022-12-11T10:17:59.877Z,11.60
2022-12-11T10:20:36.964Z,9.47
2022-12-11T10:23:03.883Z,9.97
2022-12-11T10:25:50.947Z,18.23
2022-12-11T10:28:19.632Z,9.83
2022-12-11T10:30:46.410Z,9.70
2022-12-11T10:33:16.118Z,12.00
2022-12-11T10:35:44.768Z,20.67
2022-12-11T10:38:15.797Z,83.43
2022-12-11T10:40:44.476Z,35.93
2022-12-11T10:43:11.581Z,19.40
2022-12-11T10:45:39.493Z,8.97
2022-12-11T10:48:06.978Z,48.67
2022-12-11T10:50:34.109Z,57.13
2022-12-11T10:53:00.723Z,21.70
2022-12-11T10:55:28.923Z,33.93
2022-12-11T10:58:05.953Z,26.57
2022-12-11T11:00:37.662Z,16.50
2022-12-11T11:03:18.049Z,9.73
2022-12-11T11:05:49.259Z,11.30
2022-12-11T11:08:28.616Z,15.97
2022-12-11T11:11:03.437Z,5.60
2022-12-11T11:16:29.932Z,12.17
2022-12-11T11:19:19.162Z,5.00
2022-12-11T11:22:02.040Z,10.00
2022-12-11T11:24:34.648Z,4.50
2022-12-11T11:27:16.762Z,5.67
2022-12-11T11:29:51.669Z,6.83
2022-12-11T11:32:24.346Z,6.27
2022-12-11T11:37:40.805Z,7.27
2022-12-11T11:40:16.953Z,4.40
2022-12-11T11:42:47.064Z,5.90
2022-12-11T11:45:18.365Z,9.33
2022-12-11T11:47:48.837Z,7.13
2022-12-11T11:50:16.811Z,5.47
2022-12-11T11:55:47.961Z,6.10
2022-12-11T11:58:16.134Z,42.97
2022-12-11T12:00:43.961Z,9.67
2022-12-11T12:03:14.483Z,7.63
2022-12-11T12:05:52.778Z,12.43
2022-12-11T12:08:22.667Z,7.37
2022-12-11T12:10:52.270Z,24.53
2022-12-11T12:13:49.031Z,6.37
2022-12-11T12:16:51.028Z,13.50
2022-12-11T12:19:12.440Z,13.30
2022-12-11T12:21:39.135Z,10.83
2022-12-11T12:24:09.151Z,16.77
2022-12-11T12:26:36.813Z,11.57
2022-12-11T12:29:12.972Z,8.87
2022-12-11T12:31:49.977Z,26.17
2022-12-11T12:34:25.931Z,14.80
2022-12-11T12:37:11.597Z,19.37
2022-12-11T12:39:40.899Z,19.53
2022-12-11T12:42:13.885Z,58.50
2022-12-11T12:45:00.889Z,62.13
2022-12-11T12:47:28.728Z,21.53
2022-12-11T12:49:56.079Z,26.33
2022-12-11T12:52:35.768Z,28.37
2022-12-11T12:55:14.405Z,29.87
2022-12-11T12:57:52.198Z,60.60
2022-12-11T13:00:31.391Z,15.43
2022-12-11T13:02:58.561Z,60.50
2022-12-11T13:05:26.544Z,20.23
2022-12-11T13:07:57.906Z,70.37
2022-12-11T13:10:26.053Z,67.73
2022-12-11T13:12:53.444Z,78.67
2022-12-11T13:15:24.072Z,46.17
2022-12-11T13:17:51.649Z,30.43
2022-12-11T13:20:19.468Z,11.00
2022-12-11T13:22:50.048Z,66.27
2022-12-11T13:25:41.747Z,32.93
2022-12-11T13:28:20.825Z,10.63
2022-12-11T13:33:48.192Z,17.07
2022-12-11T13:36:18.943Z,10.53
2022-12-11T13:38:51.958Z,15.10
2022-12-11T13:41:20.558Z,13.93
2022-12-11T13:43:47.301Z,22.53
2022-12-11T13:46:16.174Z,20.50
2022-12-11T13:48:45.904Z,7.20
2022-12-11T13:51:19.811Z,6.07
2022-12-11T13:53:48.160Z,7.23
2022-12-11T13:56:21.456Z,14.33
2022-12-11T13:58:48.635Z,12.10
2022-12-11T14:01:27.655Z,11.17
2022-12-11T14:03:59.217Z,14.23
2022-12-11T14:06:29.455Z,5.73
2022-12-11T14:08:57.374Z,7.87
2022-12-11T14:11:28.022Z,7.30
2022-12-11T14:13:55.897Z,3.60
2022-12-11T14:16:32.507Z,10.03
2022-12-11T14:19:04.313Z,8.07
2022-12-11T14:21:31.160Z,17.67
2022-12-11T14:23:58.932Z,11.90
2022-12-11T14:26:29.445Z,7.00
2022-12-11T14:28:56.079Z,19.67
2022-12-11T14:31:31.632Z,6.80
2022-12-11T14:34:00.010Z,7.43
2022-12-11T14:36:26.727Z,6.50
2022-12-11T14:38:55.305Z,7.17
2022-12-11T14:41:24.148Z,7.47
2022-12-11T14:43:53.374Z,30.30
2022-12-11T14:49:12.034Z,63.73
2022-12-11T14:51:39.888Z,90.07
2022-12-11T14:54:06.629Z,75.30
2022-12-11T14:56:33.272Z,57.60
2022-12-11T14:59:03.885Z,21.10
2022-12-11T15:01:34.298Z,31.83
2022-12-11T15:04:17.159Z,7.60
2022-12-11T15:06:44.659Z,7.40
2022-12-11T15:09:17.861Z,8.20
2022-12-11T15:11:44.628Z,6.77
2022-12-11T15:14:11.743Z,5.50
2022-12-11T15:16:38.548Z,7.67
2022-12-11T15:19:05.244Z,7.23
2022-12-11T15:21:35.522Z,6.30
2022-12-11T15:24:04.056Z,7.53
2022-12-11T15:26:34.941Z,6.20
2022-12-11T15:29:02.331Z,8.43
2022-12-11T15:31:29.890Z,6.90
2022-12-11T15:33:56.418Z,6.23
2022-12-11T15:36:26.715Z,23.23
2022-12-11T15:38:53.459Z,9.03
2022-12-11T15:41:24.946Z,4.63
2022-12-11T15:43:58.672Z,6.70
2022-12-11T15:46:26.504Z,7.43
2022-12-11T15:48:53.695Z,5.47
2022-12-11T15:51:20.738Z,4.07
2022-12-11T15:53:47.396Z,4.73
2022-12-11T15:56:15.387Z,77.90
2022-12-11T15:58:43.123Z,16.97
2022-12-11T16:01:09.846Z,24.40
2022-12-11T16:03:37.393Z,17.90
2022-12-11T16:06:04.374Z,6.50
2022-12-11T16:08:31.143Z,4.57
2022-12-11T16:10:58.341Z,4.67
2022-12-11T16:13:25.571Z,4.17
2022-12-11T16:15:53.944Z,4.67
2022-12-11T16:18:21.824Z,7.27
2022-12-11T16:20:49.089Z,6.37
2022-12-11T16:23:17.445Z,7.10
2022-12-11T16:25:44.612Z,6.03
2022-12-11T16:28:11.679Z,14.40
2022-12-11T16:30:38.531Z,9.70
2022-12-11T16:33:12.354Z,6.20
2022-12-11T16:35:43.117Z,4.03
2022-12-11T16:38:10.177Z,4.63
2022-12-11T16:40:37.285Z,3.90
2022-12-11T16:43:05.938Z,4.87
2022-12-11T16:45:33.236Z,3.53
2022-12-11T16:48:03.401Z,5.10
2022-12-11T16:50:31.053Z,4.17
2022-12-11T16:52:58.463Z,6.73
2022-12-11T16:55:25.093Z,4.50
2022-12-11T16:57:52.250Z,5.07
2022-12-11T17:00:18.946Z,10.27
2022-12-11T17:02:46.749Z,15.10
2022-12-11T17:05:14.327Z,16.67
2022-12-11T17:07:44.793Z,20.97
2022-12-11T17:10:11.659Z,13.20
2022-12-11T17:12:39.529Z,16.20
2022-12-11T17:15:06.852Z,13.77
2022-12-11T17:17:33.580Z,8.67
2022-12-11T17:20:00.520Z,3.97
2022-12-11T17:22:27.427Z,11.63
2022-12-11T17:24:54.600Z,4.93
2022-12-11T17:27:21.320Z,5.63
2022-12-11T17:29:50.196Z,9.90
2022-12-11T17:32:18.018Z,7.80
2022-12-11T17:34:45.708Z,9.43
2022-12-11T17:37:12.705Z,4.47
2022-12-11T17:39:39.787Z,5.33
2022-12-11T17:42:06.742Z,5.50
2022-12-11T17:44:33.517Z,5.53
2022-12-11T17:47:01.809Z,5.13
2022-12-11T17:49:30.658Z,6.57
2022-12-11T17:51:57.984Z,6.63
2022-12-11T17:54:24.982Z,4.63
2022-12-11T17:56:52.938Z,4.93
2022-12-11T17:59:19.740Z,5.43
2022-12-11T18:01:47.088Z,7.17
2022-12-11T18:04:15.933Z,4.77
2022-12-11T18:06:42.665Z,4.67
2022-12-11T18:09:11.402Z,6.13
2022-12-11T18:11:38.115Z,5.63
2022-12-11T18:14:05.141Z,4.27
2022-12-11T18:16:35.975Z,4.53
2022-12-11T18:19:03.108Z,7.57
2022-12-11T18:21:35.950Z,3.67
2022-12-11T18:24:02.862Z,3.60
2022-12-11T18:26:32.707Z,4.17
2022-12-11T18:29:07.985Z,5.57
2022-12-11T18:31:42.880Z,4.93
2022-12-11T18:34:18.149Z,4.87
2022-12-11T18:36:50.917Z,5.63
2022-12-11T18:39:23.183Z,4.63
2022-12-11T18:42:24.358Z,4.83
2022-12-11T18:44:48.836Z,9.80
2022-12-11T18:47:15.714Z,4.50
2022-12-11T18:49:43.770Z,5.57
2022-12-11T18:52:22.649Z,4.90
2022-12-11T18:54:52.540Z,5.20
2022-12-11T18:57:19.704Z,4.00
2022-12-11T18:59:47.550Z,7.23
2022-12-11T19:02:14.533Z,6.80
2022-12-11T19:04:41.507Z,6.40
2022-12-11T19:07:09.672Z,5.87
2022-12-11T19:09:38.237Z,7.00
2022-12-11T19:12:07.083Z,5.77
2022-12-11T19:14:33.837Z,4.10
2022-12-11T19:17:03.327Z,5.43
2022-12-11T19:19:30.706Z,6.50
2022-12-11T19:21:57.389Z,4.43
2022-12-11T19:24:24.182Z,5.10
2022-12-11T19:26:50.906Z,13.80
2022-12-11T19:29:27.809Z,52.73
2022-12-11T19:31:55.902Z,51.53
2022-12-11T19:34:24.054Z,14.67
2022-12-11T19:36:51.856Z,14.47
2022-12-11T19:39:19.760Z,69.73
2022-12-11T19:41:46.556Z,14.70
2022-12-11T19:44:13.118Z,6.73
2022-12-11T19:46:40.448Z,11.83
2022-12-11T19:49:07.248Z,9.70
2022-12-11T19:51:40.069Z,8.30
2022-12-11T19:54:10.093Z,5.10
2022-12-11T19:56:37.675Z,6.27
2022-12-11T19:59:06.591Z,6.53
2022-12-11T20:01:33.703Z,6.23
2022-12-11T20:04:05.417Z,7.90
2022-12-11T20:06:32.954Z,5.40
2022-12-11T20:08:59.660Z,4.40
2022-12-11T20:11:26.613Z,4.50
2022-12-11T20:13:55.605Z,4.93
2022-12-11T20:16:53.342Z,3.67
2022-12-11T20:19:13.178Z,4.27
2022-12-11T20:21:42.424Z,4.03
2022-12-11T20:24:11.975Z,5.37
2022-12-11T20:26:40.247Z,7.57
2022-12-11T20:29:08.736Z,3.37
2022-12-11T20:31:38.935Z,4.27
2022-12-11T20:34:08.189Z,4.23
2022-12-11T20:36:36.819Z,5.03
2022-12-11T20:39:03.785Z,4.83
2022-12-11T20:41:30.676Z,4.07
2022-12-11T20:43:57.545Z,3.90
2022-12-11T20:46:25.272Z,3.57
2022-12-11T20:48:52.369Z,6.00
2022-12-11T20:51:25.510Z,3.17
2022-12-11T20:53:59.511Z,4.53
2022-12-11T20:56:29.932Z,4.30
2022-12-11T20:58:57.266Z,10.17
2022-12-11T21:01:24.270Z,6.10
2022-12-11T21:03:52.685Z,5.30
2022-12-11T21:06:26.843Z,3.77
2022-12-11T21:08:53.839Z,6.73
2022-12-11T21:11:27.843Z,4.60
2022-12-11T21:13:54.667Z,7.67
2022-12-11T21:16:21.735Z,4.03
2022-12-11T21:18:48.573Z,4.60
2022-12-11T21:21:15.215Z,3.80
2022-12-11T21:23:41.955Z,3.67
2022-12-11T21:26:08.672Z,5.17
2022-12-11T21:28:35.862Z,5.37
2022-12-11T21:31:04.896Z,6.57
2022-12-11T21:33:31.654Z,9.53
2022-12-11T21:35:58.577Z,5.17
2022-12-11T21:38:26.496Z,3.40
2022-12-11T21:40:53.097Z,2.80
2022-12-11T21:43:20.897Z,3.27
2022-12-11T21:46:03.121Z,4.23
2022-12-11T21:48:30.279Z,2.30
2022-12-11T21:51:04.231Z,3.20
2022-12-11T21:53:31.007Z,4.27
2022-12-11T21:55:57.777Z,3.27
2022-12-11T21:58:24.339Z,3.57
2022-12-11T22:00:50.990Z,6.07
2022-12-11T22:03:17.707Z,5.87
2022-12-11T22:05:44.356Z,3.60
2022-12-11T22:08:11.051Z,5.50
2022-12-11T22:10:38.284Z,3.47
2022-12-11T22:13:05.140Z,4.67
2022-12-11T22:15:31.895Z,3.47
2022-12-11T22:17:58.509Z,2.20
2022-12-11T22:20:25.133Z,4.27
2022-12-11T22:22:51.764Z,3.23
2022-12-11T22:25:18.586Z,2.17
2022-12-11T22:27:45.292Z,2.70
2022-12-11T22:30:12.653Z,2.30
2022-12-11T22:32:39.352Z,2.77
2022-12-11T22:35:06.170Z,2.60
2022-12-11T22:37:33.420Z,1.87
2022-12-11T22:40:00.025Z,3.93
2022-12-11T22:42:26.960Z,3.93
2022-12-11T22:44:53.607Z,2.67
2022-12-11T22:47:20.642Z,2.23
2022-12-11T22:49:47.807Z,3.10
2022-12-11T22:52:14.543Z,2.77
2022-12-11T22:54:41.276Z,1.90
2022-12-11T22:57:08.360Z,2.60
2022-12-11T22:59:35.389Z,2.70
2022-12-11T23:02:02.112Z,2.77
2022-12-11T23:04:28.612Z,2.60
2022-12-11T23:06:55.388Z,1.57
2022-12-11T23:09:21.957Z,2.37
2022-12-11T23:11:48.529Z,2.30
2022-12-11T23:14:16.017Z,5.03
2022-12-11T23:16:42.672Z,5.30
2022-12-11T23:19:09.299Z,1.87
2022-12-11T23:21:35.833Z,3.27
2022-12-11T23:24:02.405Z,2.13
2022-12-11T23:26:29.011Z,3.27
2022-12-11T23:28:56.036Z,1.70
2022-12-11T23:31:23.004Z,4.70
2022-12-11T23:33:49.684Z,3.07
2022-12-11T23:36:16.491Z,2.20
2022-12-11T23:38:43.005Z,2.10
2022-12-11T23:41:09.900Z,2.67
2022-12-11T23:43:36.536Z,2.57
2022-12-11T23:46:04.107Z,4.20
2022-12-11T23:48:31.306Z,3.33
2022-12-11T23:51:01.074Z,3.27
2022-12-11T23:53:28.208Z,4.03
2022-12-11T23:55:54.755Z,1.97
2022-12-11T23:58:21.776Z,4.17
